Time;durP1;ratioP1;P1;durP2;ratioP2;P2;SDS_P1;SDS_P2;PMS_P1;PMS_P2;Temp;Humidity;BMP_temperature;BMP_pressure;BME280_temperature;BME280_humidity;BME280_pressure;Samples;Min_cycle;Max_cycle;Signal;HPM_P1;HPM_P2
2022/09/30 00:01:34;;;;;;;10.25;6.35;;;;;;;10.15;74.75;99074.72;5059272;28;20048;-93
2022/09/30 00:04:02;;;;;;;18.20;8.18;;;;;;;10.22;74.58;99077.59;5043342;28;20450;-93
2022/09/30 00:06:29;;;;;;;12.57;7.20;;;;;;;10.18;74.53;99076.25;5042572;28;20039;-93
2022/09/30 00:08:56;;;;;;;13.45;7.22;;;;;;;10.19;74.60;99077.91;5042780;28;20056;-92
2022/09/30 00:11:29;;;;;;;15.40;7.68;;;;;;;10.13;74.18;99081.16;5071866;28;20478;-92
2022/09/30 00:13:57;;;;;;;13.48;6.45;;;;;;;10.13;74.62;99086.47;5075860;28;20109;-93
2022/09/30 00:16:27;;;;;;;21.88;7.70;;;;;;;10.02;74.91;99087.50;5073714;28;20040;-92
2022/09/30 00:18:55;;;;;;;18.13;6.85;;;;;;;10.04;74.39;99090.84;5064038;28;20445;-93
2022/09/30 00:21:22;;;;;;;16.58;6.68;;;;;;;10.02;74.71;99091.97;5047263;28;20096;-92
2022/09/30 00:23:49;;;;;;;13.10;6.47;;;;;;;9.95;75.10;99097.91;5057395;28;20048;-93
2022/09/30 00:26:18;;;;;;;12.82;7.68;;;;;;;9.96;74.54;99081.00;5049963;28;20059;-93
2022/09/30 00:28:49;;;;;;;17.52;7.22;;;;;;;9.95;74.74;99089.94;5064387;28;20098;-92
2022/09/30 00:31:18;;;;;;;13.02;6.40;;;;;;;9.99;74.64;99093.13;5057749;28;20071;-93
2022/09/30 00:34:05;;;;;;;14.88;7.13;;;;;;;9.94;74.60;99090.91;5043213;28;20096;-93
2022/09/30 00:36:46;;;;;;;18.25;6.38;;;;;;;9.88;74.33;99096.00;5040692;28;20086;-92
2022/09/30 00:39:19;;;;;;;11.80;6.80;;;;;;;9.85;74.50;99086.53;5044483;28;20135;-92
2022/09/30 00:41:50;;;;;;;15.93;7.25;;;;;;;9.87;74.53;99089.00;5039223;28;20098;-92
2022/09/30 00:44:43;;;;;;;15.63;6.78;;;;;;;9.80;74.62;99090.59;5057660;28;20089;-92
2022/09/30 00:47:40;;;;;;;17.73;6.85;;;;;;;9.80;74.00;99091.44;5055411;28;20058;-93
2022/09/30 00:50:41;;;;;;;16.55;6.63;;;;;;;9.71;74.45;99089.66;5076004;28;20379;-92
2022/09/30 00:53:10;;;;;;;14.15;6.47;;;;;;;9.84;74.72;99089.31;5073616;28;20054;-92
2022/09/30 00:55:51;;;;;;;18.00;6.72;;;;;;;9.81;74.41;99094.91;5070616;28;20074;-92
2022/09/30 00:58:29;;;;;;;16.05;6.38;;;;;;;9.76;74.44;99096.19;5067773;28;20044;-92
2022/09/30 01:00:58;;;;;;;11.40;5.88;;;;;;;9.82;74.09;99100.09;5058271;28;20544;-92
2022/09/30 01:03:25;;;;;;;13.98;6.90;;;;;;;9.74;74.31;99092.88;5079438;28;20115;-92
2022/09/30 01:05:52;;;;;;;13.25;6.63;;;;;;;9.76;74.24;99092.69;5081255;28;20048;-92
2022/09/30 01:08:20;;;;;;;13.23;7.05;;;;;;;9.75;74.19;99088.41;5061076;28;20067;-92
2022/09/30 01:10:46;;;;;;;17.65;7.78;;;;;;;9.73;74.43;99095.66;5061137;28;20039;-91
2022/09/30 01:13:14;;;;;;;17.10;6.45;;;;;;;9.72;74.07;99094.84;5073646;28;20040;-92
2022/09/30 01:15:54;;;;;;;16.38;7.07;;;;;;;9.62;73.72;99099.34;5059392;28;20060;-92
2022/09/30 01:18:46;;;;;;;15.93;6.55;;;;;;;9.50;73.83;99103.19;5054068;28;20621;-92
2022/09/30 01:21:42;;;;;;;25.27;7.43;;;;;;;9.60;74.19;99093.34;5048353;28;20375;-92
2022/09/30 01:24:43;;;;;;;14.25;6.68;;;;;;;9.40;74.56;99095.25;5056422;28;20059;-93
2022/09/30 01:27:31;;;;;;;15.45;6.68;;;;;;;9.54;74.61;99094.78;5069227;28;20055;-92
2022/09/30 01:30:20;;;;;;;18.17;6.85;;;;;;;9.43;75.34;99097.63;5079489;28;20043;-93
2022/09/30 01:32:59;;;;;;;13.05;6.93;;;;;;;9.57;74.69;99104.25;5089899;28;20040;-92
2022/09/30 01:35:29;;;;;;;18.20;7.28;;;;;;;9.60;74.95;99103.13;5105175;28;20047;-92
2022/09/30 01:38:11;;;;;;;17.02;6.95;;;;;;;9.57;74.90;99106.91;5057336;28;20048;-92
2022/09/30 01:40:55;;;;;;;15.40;7.32;;;;;;;9.46;75.51;99101.78;5079722;28;20036;-92
2022/09/30 01:43:34;;;;;;;15.52;6.50;;;;;;;9.63;75.28;99110.78;5068235;28;20051;-92
2022/09/30 01:46:07;;;;;;;17.88;7.00;;;;;;;9.56;74.85;99114.00;5060968;28;20185;-92
2022/09/30 01:48:49;;;;;;;18.80;6.88;;;;;;;9.41;75.31;99123.41;5072708;28;20047;-92
2022/09/30 01:51:35;;;;;;;12.50;6.38;;;;;;;9.37;75.71;99116.75;5054861;28;20660;-92
2022/09/30 01:54:25;;;;;;;16.45;6.97;;;;;;;9.35;75.10;99116.91;5085767;28;20381;-92
2022/09/30 01:56:58;;;;;;;14.60;6.38;;;;;;;9.45;75.23;99122.16;5092545;28;20036;-91
2022/09/30 01:59:35;;;;;;;13.82;6.78;;;;;;;9.40;75.33;99123.59;5047191;28;20043;-93
2022/09/30 02:02:09;;;;;;;10.35;6.20;;;;;;;9.41;75.49;99122.59;5061522;28;20051;-91
2022/09/30 02:04:40;;;;;;;8.90;5.55;;;;;;;9.42;75.35;99122.47;5071180;28;20070;-92
2022/09/30 02:07:13;;;;;;;11.98;6.03;;;;;;;9.41;75.78;99123.41;5058629;28;20444;-92
2022/09/30 02:09:45;;;;;;;16.33;6.60;;;;;;;9.40;75.55;99126.22;5046312;28;20043;-92
2022/09/30 02:12:15;;;;;;;15.93;6.25;;;;;;;9.43;75.63;99129.41;5076131;28;20126;-91
2022/09/30 02:14:49;;;;;;;14.63;5.35;;;;;;;9.34;75.57;99132.94;5042494;28;20039;-92
2022/09/30 02:17:43;;;;;;;11.43;5.53;;;;;;;9.28;75.86;99139.66;5063029;28;20051;-92
2022/09/30 02:20:13;;;;;;;12.23;5.68;;;;;;;9.42;75.81;99146.31;5065418;28;20067;-92
2022/09/30 02:22:49;;;;;;;12.40;6.80;;;;;;;9.45;75.63;99148.66;5076295;28;20059;-92
2022/09/30 02:25:22;;;;;;;13.88;6.43;;;;;;;9.38;75.82;99152.03;5074652;28;20051;-92
2022/09/30 02:27:54;;;;;;;15.13;6.40;;;;;;;9.30;75.85;99148.28;5073803;28;20044;-91
2022/09/30 02:30:20;;;;;;;15.70;6.90;;;;;;;9.42;75.73;99156.91;5076195;28;20046;-92
2022/09/30 02:32:51;;;;;;;12.63;5.75;;;;;;;9.39;75.59;99157.19;5054740;28;20059;-92
2022/09/30 02:35:42;;;;;;;11.85;6.43;;;;;;;9.24;76.10;99159.47;5069846;28;20052;-92
2022/09/30 02:38:15;;;;;;;12.82;6.40;;;;;;;9.31;76.11;99162.38;5058171;28;20453;-92
2022/09/30 02:40:51;;;;;;;12.75;5.55;;;;;;;9.37;75.97;99161.81;5041225;28;20056;-93
2022/09/30 02:43:19;;;;;;;14.98;6.55;;;;;;;9.40;76.10;99169.47;5061166;28;20043;-91
2022/09/30 02:46:07;;;;;;;25.67;8.60;;;;;;;9.20;76.27;99165.19;5067492;28;20040;-91
2022/09/30 02:49:12;;;;;;;14.27;6.43;;;;;;;9.24;76.21;99170.06;5056821;28;20590;-91
2022/09/30 02:51:43;;;;;;;11.65;6.13;;;;;;;9.37;75.60;99164.44;5078571;28;20036;-91
2022/09/30 02:54:35;;;;;;;21.98;6.78;;;;;;;9.25;76.06;99169.06;5093209;28;20098;-91
2022/09/30 02:57:56;;;;;;;15.35;6.22;;;;;;;9.22;75.96;99173.84;5053026;28;20147;-91
2022/09/30 03:00:23;;;;;;;11.43;5.72;;;;;;;9.42;75.00;99177.28;4992889;28;20049;-92
2022/09/30 03:02:54;;;;;;;13.63;5.75;;;;;;;9.35;75.80;99180.47;5052949;28;20458;-91
2022/09/30 03:05:21;;;;;;;16.58;6.05;;;;;;;9.38;75.96;99178.53;5036208;28;20574;-92
2022/09/30 03:07:47;;;;;;;13.07;5.70;;;;;;;9.46;75.76;99184.78;5059350;28;20059;-92
2022/09/30 03:10:16;;;;;;;18.02;6.10;;;;;;;9.46;75.83;99184.78;5044052;28;20051;-92
2022/09/30 03:13:11;;;;;;;15.18;7.03;;;;;;;9.23;76.11;99191.38;5054281;28;20044;-92
2022/09/30 03:16:02;;;;;;;13.48;6.47;;;;;;;9.21;75.80;99185.41;5070195;28;20047;-92
2022/09/30 03:18:35;;;;;;;18.67;6.32;;;;;;;9.38;75.73;99178.53;5063075;28;20966;-91
2022/09/30 03:21:14;;;;;;;12.30;6.72;;;;;;;9.30;75.34;99182.72;5074085;28;20054;-91
2022/09/30 03:23:54;;;;;;;15.88;7.07;;;;;;;9.26;75.24;99181.38;5067227;28;20038;-91
2022/09/30 03:26:43;;;;;;;13.02;7.10;;;;;;;9.13;75.83;99189.63;5070220;28;20378;-91
2022/09/30 03:29:20;;;;;;;13.20;6.47;;;;;;;9.25;75.41;99186.78;5058751;28;20448;-90
2022/09/30 03:32:06;;;;;;;15.43;7.07;;;;;;;9.28;75.27;99197.09;5056916;28;20046;-84
2022/09/30 03:34:58;;;;;;;25.00;7.38;;;;;;;9.15;75.29;99193.94;5054113;28;20044;-85
2022/09/30 03:37:26;;;;;;;17.52;7.03;;;;;;;9.23;75.20;99194.88;5071271;28;20051;-85
2022/09/30 03:40:16;;;;;;;15.55;7.18;;;;;;;9.26;75.55;99191.97;5075305;28;20059;-90
2022/09/30 03:42:52;;;;;;;12.88;5.90;;;;;;;9.21;75.38;99196.00;5059988;28;20044;-86
2022/09/30 03:45:38;;;;;;;17.95;7.32;;;;;;;9.09;75.20;99204.13;5033970;28;20105;-87
2022/09/30 03:48:08;;;;;;;20.35;6.70;;;;;;;9.26;74.97;99209.66;5070989;28;20056;-90
2022/09/30 03:50:36;;;;;;;13.15;6.85;;;;;;;9.25;75.22;99210.63;5081378;28;20081;-91
2022/09/30 03:53:03;;;;;;;11.55;5.85;;;;;;;9.30;74.67;99209.22;5074656;28;20048;-91
2022/09/30 03:55:32;;;;;;;8.25;5.75;;;;;;;9.23;75.15;99210.78;5055061;28;20050;-91
2022/09/30 03:57:58;;;;;;;10.77;5.68;;;;;;;9.24;75.32;99216.94;5072647;28;20052;-90
2022/09/30 04:00:25;;;;;;;10.57;6.40;;;;;;;9.28;74.96;99218.28;5078171;28;20039;-91
2022/09/30 04:02:52;;;;;;;14.15;6.22;;;;;;;9.20;75.55;99219.00;5084504;28;20067;-90
2022/09/30 04:05:23;;;;;;;11.70;6.35;;;;;;;9.23;75.60;99212.59;5060425;28;20074;-91
2022/09/30 04:07:50;;;;;;;10.95;6.32;;;;;;;9.25;75.23;99215.94;5050439;28;20040;-85
2022/09/30 04:10:17;;;;;;;10.98;5.63;;;;;;;9.22;74.94;99227.66;5073251;28;20036;-85
2022/09/30 04:12:43;;;;;;;12.85;6.00;;;;;;;9.23;75.46;99226.66;5066120;28;20040;-93
2022/09/30 04:15:10;;;;;;;12.55;5.85;;;;;;;9.21;75.18;99230.44;5073945;28;20048;-85
2022/09/30 04:17:37;;;;;;;14.60;5.85;;;;;;;9.21;75.31;99222.47;5059071;28;20040;-85
2022/09/30 04:20:04;;;;;;;13.75;6.03;;;;;;;9.17;75.36;99229.06;5081272;28;20044;-84
2022/09/30 04:22:31;;;;;;;16.88;6.75;;;;;;;9.14;75.48;99227.53;5058598;28;20056;-88
2022/09/30 04:24:57;;;;;;;9.75;5.03;;;;;;;9.10;75.46;99223.47;5056211;28;20039;-89
2022/09/30 04:27:24;;;;;;;11.18;5.80;;;;;;;9.06;75.44;99230.06;5075369;28;20487;-88
2022/09/30 04:29:51;;;;;;;14.45;5.82;;;;;;;9.07;75.29;99234.38;5070394;28;20044;-86
2022/09/30 04:32:18;;;;;;;13.45;5.70;;;;;;;9.04;75.54;99226.72;5081470;28;20043;-85
2022/09/30 04:34:44;;;;;;;16.98;6.30;;;;;;;9.06;75.31;99232.69;5059210;28;20035;-86
2022/09/30 04:37:11;;;;;;;17.13;6.40;;;;;;;8.99;75.85;99229.78;5074335;28;20075;-85
2022/09/30 04:39:39;;;;;;;13.00;5.32;;;;;;;9.07;75.26;99232.53;5066431;28;20048;-88
2022/09/30 04:42:06;;;;;;;17.00;6.10;;;;;;;8.99;75.58;99235.06;5069702;28;20036;-86
2022/09/30 04:44:34;;;;;;;9.38;5.57;;;;;;;9.01;75.79;99241.06;5055559;28;20043;-91
2022/09/30 04:47:00;;;;;;;13.85;5.57;;;;;;;8.99;75.62;99247.47;5077339;28;20441;-83
2022/09/30 04:49:27;;;;;;;12.75;6.00;;;;;;;8.98;75.72;99243.13;5067075;28;20039;-84
2022/09/30 04:51:54;;;;;;;13.57;6.55;;;;;;;9.00;75.79;99251.78;5072117;28;20072;-83
2022/09/30 04:54:21;;;;;;;9.52;5.72;;;;;;;8.93;75.55;99246.22;5067071;28;20068;-83
2022/09/30 04:56:48;;;;;;;12.60;6.07;;;;;;;8.95;75.73;99249.56;5099299;28;20040;-83
2022/09/30 04:59:14;;;;;;;13.05;6.53;;;;;;;8.90;75.62;99252.66;5078590;28;20046;-84
2022/09/30 05:01:43;;;;;;;11.52;5.38;;;;;;;8.88;75.98;99256.41;5082020;28;20058;-83
2022/09/30 05:04:11;;;;;;;12.07;6.20;;;;;;;8.83;75.87;99254.16;5079790;28;20475;-83
2022/09/30 05:06:40;;;;;;;13.40;6.57;;;;;;;8.81;75.73;99256.09;5067770;28;20491;-84
2022/09/30 05:09:07;;;;;;;10.35;6.40;;;;;;;8.87;76.11;99260.00;5089541;28;20479;-83
2022/09/30 05:11:36;;;;;;;14.32;6.55;;;;;;;8.88;76.06;99272.28;5074589;28;20105;-83
2022/09/30 05:14:07;;;;;;;14.85;6.75;;;;;;;8.87;75.98;99274.06;5069421;28;20178;-83
2022/09/30 05:16:34;;;;;;;19.55;8.13;;;;;;;8.86;76.26;99275.06;5055770;28;20487;-83
2022/09/30 05:19:01;;;;;;;20.42;6.90;;;;;;;8.91;75.83;99279.94;5084813;28;20050;-83
2022/09/30 05:21:28;;;;;;;13.02;6.93;;;;;;;8.93;76.19;99288.59;5052837;28;20039;-83
2022/09/30 05:23:54;;;;;;;18.70;7.38;;;;;;;8.93;76.28;99285.09;5086681;28;20068;-83
2022/09/30 05:26:21;;;;;;;15.57;6.70;;;;;;;8.88;76.57;99290.81;5068823;28;20077;-83
2022/09/30 05:28:48;;;;;;;18.83;8.27;;;;;;;8.87;76.15;99287.31;5072107;28;20059;-83
2022/09/30 05:31:14;;;;;;;16.58;8.00;;;;;;;8.90;76.07;99300.31;5080858;28;20657;-83
2022/09/30 05:33:41;;;;;;;13.50;7.07;;;;;;;8.90;76.23;99296.78;5088116;28;20039;-83
2022/09/30 05:36:11;;;;;;;15.05;7.65;;;;;;;8.84;76.42;99303.47;5079863;28;20105;-83
2022/09/30 05:38:38;;;;;;;16.05;7.65;;;;;;;8.90;76.50;99305.59;5070742;28;20070;-83
2022/09/30 05:41:10;;;;;;;28.17;8.18;;;;;;;8.84;76.46;99308.78;5067532;28;20044;-83
2022/09/30 05:43:40;;;;;;;18.27;6.80;;;;;;;8.82;76.27;99305.44;5083785;28;20418;-83
2022/09/30 05:46:07;;;;;;;12.70;6.60;;;;;;;8.86;76.50;99300.72;5056955;28;20640;-84
2022/09/30 05:48:34;;;;;;;22.60;10.02;;;;;;;8.92;76.41;99302.78;5082428;28;20040;-84
2022/09/30 05:51:01;;;;;;;23.42;10.38;;;;;;;8.91;76.50;99301.13;5091314;28;20048;-84
2022/09/30 05:53:30;;;;;;;22.13;10.52;;;;;;;8.90;76.75;99302.94;5053564;28;20043;-83
2022/09/30 05:55:57;;;;;;;26.10;13.18;;;;;;;8.91;76.76;99304.59;5083916;28;20048;-84
2022/09/30 05:58:24;;;;;;;32.22;13.15;;;;;;;8.96;76.22;99308.66;5072892;28;20048;-83
2022/09/30 06:00:50;;;;;;;22.33;12.77;;;;;;;8.96;76.17;99317.44;5074465;28;20059;-83
2022/09/30 06:03:17;;;;;;;16.92;10.23;;;;;;;9.01;76.01;99311.72;5056629;28;20506;-84
2022/09/30 06:05:44;;;;;;;19.60;9.13;;;;;;;9.01;76.38;99324.97;5069472;28;20040;-83
2022/09/30 06:08:12;;;;;;;22.33;13.35;;;;;;;9.05;76.06;99324.53;5074552;28;20548;-83
2022/09/30 06:10:43;;;;;;;31.67;17.33;;;;;;;9.09;75.97;99319.81;5083339;28;20044;-84
2022/09/30 06:13:10;;;;;;;39.75;14.60;;;;;;;9.09;76.41;99319.81;5055790;28;20060;-83
2022/09/30 06:15:38;;;;;;;16.83;9.23;;;;;;;9.07;76.95;99333.19;5082889;28;20040;-84
2022/09/30 06:18:04;;;;;;;16.67;7.75;;;;;;;9.11;76.42;99337.25;5086141;28;20449;-84
2022/09/30 06:20:31;;;;;;;16.90;8.27;;;;;;;9.08;76.64;99334.00;5085929;28;20040;-83
2022/09/30 06:23:02;;;;;;;18.90;9.35;;;;;;;9.08;76.26;99331.38;5074326;28;20052;-83
2022/09/30 06:25:29;;;;;;;18.45;9.40;;;;;;;9.10;76.15;99335.56;5068369;28;20047;-84
2022/09/30 06:27:56;;;;;;;23.75;10.48;;;;;;;9.12;76.34;99340.72;5081649;28;20071;-84
2022/09/30 06:30:23;;;;;;;23.00;10.10;;;;;;;9.09;76.65;99352.44;5084853;28;20036;-83
2022/09/30 06:32:50;;;;;;;22.35;10.07;;;;;;;9.15;76.73;99358.16;5043504;28;20448;-84
2022/09/30 06:35:19;;;;;;;17.95;8.40;;;;;;;9.18;76.65;99357.88;5094002;28;20032;-84
2022/09/30 06:37:49;;;;;;;23.15;9.60;;;;;;;9.19;76.70;99365.69;5081766;28;20097;-84
2022/09/30 06:40:16;;;;;;;20.73;9.23;;;;;;;9.24;76.45;99371.41;5083660;28;20044;-84
2022/09/30 06:42:43;;;;;;;23.02;9.73;;;;;;;9.27;76.29;99365.00;5073127;28;20040;-84
2022/09/30 06:45:11;;;;;;;34.15;10.40;;;;;;;9.33;76.25;99372.38;5101429;28;20445;-84
2022/09/30 06:47:58;;;;;;;23.20;10.40;;;;;;;9.39;76.38;99376.28;5072020;28;20036;-84
2022/09/30 06:50:27;;;;;;;23.60;10.38;;;;;;;9.47;76.31;99377.28;5084797;28;20036;-84
2022/09/30 06:53:05;;;;;;;27.20;11.02;;;;;;;9.50;76.43;99378.81;5085719;28;20093;-84
2022/09/30 06:55:32;;;;;;;26.17;11.07;;;;;;;9.59;75.79;99388.53;5066054;28;20101;-84
2022/09/30 06:57:59;;;;;;;30.73;11.45;;;;;;;9.66;75.53;99394.97;5088669;28;20206;-84
2022/09/30 07:00:27;;;;;;;26.17;11.55;;;;;;;9.62;75.15;99388.28;5068312;28;20131;-84
2022/09/30 07:02:55;;;;;;;22.90;10.65;;;;;;;9.62;75.21;99392.75;5087736;28;20032;-84
2022/09/30 07:05:24;;;;;;;27.92;11.68;;;;;;;9.66;75.41;99381.72;5076245;28;20106;-84
2022/09/30 07:07:52;;;;;;;25.63;11.48;;;;;;;9.69;75.32;99386.75;5085501;28;20043;-85
2022/09/30 07:10:19;;;;;;;27.17;11.18;;;;;;;9.70;75.70;99388.41;5078042;28;20047;-84
2022/09/30 07:12:50;;;;;;;22.67;11.82;;;;;;;9.71;75.52;99394.53;5086984;28;20082;-84
2022/09/30 07:15:21;;;;;;;34.40;13.05;;;;;;;9.83;75.34;99389.94;5071716;28;20123;-84
2022/09/30 07:17:52;;;;;;;31.40;11.75;;;;;;;9.83;75.51;99388.13;5054809;28;20115;-84
2022/09/30 07:20:19;;;;;;;32.83;12.45;;;;;;;9.87;75.48;99383.34;5093312;28;20031;-84
2022/09/30 07:22:46;;;;;;;27.92;11.07;;;;;;;9.92;75.32;99386.41;5060195;28;20465;-84
2022/09/30 07:25:13;;;;;;;30.23;10.77;;;;;;;9.87;75.47;99388.66;5090393;28;20093;-84
2022/09/30 07:27:40;;;;;;;33.63;12.02;;;;;;;9.90;75.50;99391.88;5084436;28;20084;-84
2022/09/30 07:30:07;;;;;;;25.02;11.73;;;;;;;10.01;75.38;99390.88;5056139;28;20046;-85
2022/09/30 07:32:42;;;;;;;29.17;13.25;;;;;;;10.05;75.11;99399.38;5054041;28;20051;-84
2022/09/30 07:35:08;;;;;;;25.17;10.98;;;;;;;10.05;75.06;99404.69;5065597;28;20063;-84
2022/09/30 07:37:35;;;;;;;26.95;13.23;;;;;;;10.04;74.98;99400.38;5089421;28;20479;-84
2022/09/30 07:40:06;;;;;;;25.25;11.35;;;;;;;10.11;75.07;99406.78;5084805;28;20051;-84
2022/09/30 07:42:36;;;;;;;28.00;13.50;;;;;;;10.17;74.96;99407.03;5062807;28;20044;-84
2022/09/30 07:45:03;;;;;;;31.00;12.82;;;;;;;10.24;74.90;99409.94;5084147;28;20044;-84
2022/09/30 07:47:30;;;;;;;33.80;13.90;;;;;;;10.27;74.69;99425.56;5081378;28;20036;-84
2022/09/30 07:49:57;;;;;;;33.72;14.00;;;;;;;10.30;74.63;99419.19;5081196;28;20040;-84
2022/09/30 07:52:23;;;;;;;33.08;13.50;;;;;;;10.29;74.47;99423.66;5064712;28;20044;-84
2022/09/30 07:54:50;;;;;;;30.83;14.82;;;;;;;10.34;74.52;99431.19;5067335;28;20752;-84
2022/09/30 07:57:17;;;;;;;33.17;14.80;;;;;;;10.36;74.79;99426.56;5054419;28;20123;-84
2022/09/30 07:59:44;;;;;;;34.10;15.40;;;;;;;10.41;74.57;99442.91;5060490;28;20115;-84
2022/09/30 08:02:15;;;;;;;29.77;12.55;;;;;;;10.46;74.52;99442.44;5087213;28;20410;-84
2022/09/30 08:04:42;;;;;;;38.00;15.73;;;;;;;10.48;74.66;99445.81;5100521;28;20036;-84
2022/09/30 08:07:11;;;;;;;29.88;13.45;;;;;;;10.51;74.40;99442.88;5071833;28;20047;-84
2022/09/30 08:09:38;;;;;;;34.88;14.80;;;;;;;10.55;74.75;99450.38;5075783;28;20097;-84
2022/09/30 08:12:05;;;;;;;32.20;14.95;;;;;;;10.57;74.93;99437.81;5070002;28;20047;-84
2022/09/30 08:14:32;;;;;;;41.40;15.20;;;;;;;10.63;74.73;99447.00;5065666;28;20434;-83
2022/09/30 08:16:59;;;;;;;32.28;14.32;;;;;;;10.65;74.59;99439.75;5053382;28;20051;-84
2022/09/30 08:19:28;;;;;;;37.30;14.20;;;;;;;10.68;74.84;99443.91;5072955;28;20047;-83
2022/09/30 08:21:54;;;;;;;30.98;13.80;;;;;;;10.69;75.09;99449.09;5084035;28;20087;-83
2022/09/30 08:24:22;;;;;;;33.75;13.98;;;;;;;10.75;75.22;99453.81;5072912;28;20039;-84
2022/09/30 08:26:50;;;;;;;33.33;12.60;;;;;;;10.78;75.18;99448.19;5057381;28;20040;-84
2022/09/30 08:29:18;;;;;;;30.95;13.95;;;;;;;10.81;75.28;99439.97;5067354;28;20044;-84
2022/09/30 08:32:04;;;;;;;29.50;12.43;;;;;;;10.85;75.42;99448.47;5069823;28;20196;-84
2022/09/30 08:34:34;;;;;;;31.35;14.05;;;;;;;10.87;75.27;99454.47;5072228;28;20510;-84
2022/09/30 08:37:01;;;;;;;26.88;11.90;;;;;;;10.90;75.71;99453.34;5077138;28;20138;-84
2022/09/30 08:39:35;;;;;;;30.58;13.77;;;;;;;10.92;75.87;99464.66;5091295;28;20072;-84
2022/09/30 08:42:18;;;;;;;25.63;11.75;;;;;;;10.90;76.48;99466.63;5086407;28;20051;-84
2022/09/30 08:45:16;;;;;;;22.50;11.17;;;;;;;10.91;75.96;99463.78;5063581;28;20027;-84
2022/09/30 08:48:22;;;;;;;25.48;11.48;;;;;;;10.90;76.52;99474.59;5076380;28;20101;-83
2022/09/30 08:51:26;;;;;;;22.77;10.30;;;;;;;10.90;76.43;99472.75;5029664;28;20517;-84
2022/09/30 08:53:54;;;;;;;26.60;11.45;;;;;;;10.94;76.42;99470.63;5063137;28;20391;-83
2022/09/30 08:56:23;;;;;;;28.35;12.35;;;;;;;10.98;76.32;99474.69;5085609;28;20040;-84
2022/09/30 08:58:54;;;;;;;23.25;12.25;;;;;;;10.99;76.65;99481.66;5099653;28;20044;-84
2022/09/30 09:01:34;;;;;;;25.88;13.80;;;;;;;10.98;77.01;99485.31;5091943;28;20112;-83
2022/09/30 09:04:02;;;;;;;30.00;12.82;;;;;;;11.02;76.46;99482.22;5086017;28;20067;-83
2022/09/30 09:06:35;;;;;;;28.95;13.40;;;;;;;11.06;76.81;99485.41;5063988;28;20044;-83
2022/09/30 09:09:14;;;;;;;33.75;13.88;;;;;;;11.04;77.10;99474.09;5086634;28;20494;-83
2022/09/30 09:11:52;;;;;;;30.83;12.90;;;;;;;11.07;77.34;99487.94;5105660;28;20056;-83
2022/09/30 09:14:38;;;;;;;33.00;14.13;;;;;;;11.06;78.56;99493.38;5072323;28;20047;-84
2022/09/30 09:17:17;;;;;;;32.30;12.10;;;;;;;11.13;78.06;99496.28;5081596;28;20089;-83
2022/09/30 09:20:02;;;;;;;35.10;14.43;;;;;;;11.17;77.75;99505.63;5083200;28;20911;-83
2022/09/30 09:22:29;;;;;;;33.95;14.30;;;;;;;11.27;77.46;99498.44;5067828;28;20109;-84
2022/09/30 09:24:56;;;;;;;26.52;13.63;;;;;;;11.30;77.86;99492.84;5079052;28;20036;-83
2022/09/30 09:27:51;;;;;;;32.60;14.15;;;;;;;11.27;78.13;99490.47;5072816;28;20096;-83
2022/09/30 09:30:21;;;;;;;27.08;13.20;;;;;;;11.35;77.44;99490.59;5073272;28;20066;-83
2022/09/30 09:32:57;;;;;;;27.67;13.20;;;;;;;11.34;77.54;99482.75;5083100;28;20051;-83
2022/09/30 09:35:59;;;;;;;33.70;14.18;;;;;;;11.34;77.69;99486.22;5086725;28;20036;-83
2022/09/30 09:38:34;;;;;;;28.52;12.32;;;;;;;11.40;77.34;99484.81;5100334;28;20441;-83
2022/09/30 09:41:24;;;;;;;38.67;15.07;;;;;;;11.36;77.26;99480.78;5083715;28;20466;-83
2022/09/30 09:44:04;;;;;;;25.23;12.20;;;;;;;11.38;77.45;99479.63;5085047;28;20051;-83
2022/09/30 09:46:43;;;;;;;26.98;12.90;;;;;;;11.41;77.28;99468.69;5091500;28;20048;-83
2022/09/30 09:49:14;;;;;;;30.10;12.98;;;;;;;11.48;77.40;99471.59;5092941;28;20044;-82
2022/09/30 09:51:46;;;;;;;24.67;12.93;;;;;;;11.53;77.19;99469.34;5072020;28;20048;-83
2022/09/30 09:54:20;;;;;;;35.22;15.30;;;;;;;11.59;77.42;99451.94;5084106;28;20494;-83
2022/09/30 09:56:47;;;;;;;37.08;13.18;;;;;;;11.61;77.59;99457.94;5072317;28;20039;-83
2022/09/30 09:59:15;;;;;;;27.65;11.45;;;;;;;11.65;77.14;99457.50;5076395;28;20096;-83
2022/09/30 10:01:51;;;;;;;31.73;13.02;;;;;;;11.69;76.83;99458.00;5073908;28;20052;-83
2022/09/30 10:04:23;;;;;;;23.35;11.38;;;;;;;11.69;76.65;99458.00;5091197;28;20505;-83
2022/09/30 10:07:01;;;;;;;22.83;11.00;;;;;;;11.65;76.63;99453.97;5086497;28;20159;-83
2022/09/30 10:09:31;;;;;;;27.58;9.32;;;;;;;11.74;76.52;99456.56;5090243;28;20035;-83
2022/09/30 10:12:03;;;;;;;26.08;11.45;;;;;;;11.73;76.60;99449.59;5085107;28;20048;-83
2022/09/30 10:14:46;;;;;;;27.42;12.30;;;;;;;11.70;76.48;99439.25;5095105;28;20105;-83
2022/09/30 10:17:24;;;;;;;30.00;12.10;;;;;;;11.76;76.59;99444.94;5106253;28;20044;-83
2022/09/30 10:19:54;;;;;;;25.25;11.65;;;;;;;11.82;76.01;99444.31;5073104;28;20109;-83
2022/09/30 10:22:27;;;;;;;20.65;9.93;;;;;;;11.84;76.38;99445.84;5066860;28;20131;-83
2022/09/30 10:25:07;;;;;;;;;;;;;;;11.72;76.63;99439.91;5105395;28;20085;-83
2022/09/30 10:27:34;;;;;;;19.55;8.70;;;;;;;11.87;75.82;99442.06;5104994;28;19959;-83
2022/09/30 10:30:01;;;;;;;24.08;10.10;;;;;;;11.92;75.77;99443.28;5090133;28;20637;-83
2022/09/30 10:32:28;;;;;;;17.38;7.78;;;;;;;11.94;75.46;99435.97;5076984;28;20067;-83
2022/09/30 10:35:02;;;;;;;22.35;9.40;;;;;;;11.97;75.14;99436.66;5074848;28;20093;-83
2022/09/30 10:37:28;;;;;;;24.08;8.40;;;;;;;12.03;75.24;99441.34;5077805;28;20551;-83
2022/09/30 10:40:00;;;;;;;23.42;8.20;;;;;;;12.07;75.04;99442.72;5074680;28;20079;-83
2022/09/30 10:42:30;;;;;;;17.33;7.50;;;;;;;12.11;75.05;99444.06;5084738;28;20044;-83
2022/09/30 10:45:01;;;;;;;19.15;7.72;;;;;;;12.15;74.57;99448.09;5076125;28;20119;-82
2022/09/30 10:47:28;;;;;;;17.73;7.45;;;;;;;12.15;74.12;99446.28;5072227;28;20073;-83
2022/09/30 10:50:16;;;;;;;17.45;7.85;;;;;;;12.14;73.07;99449.94;5086143;28;20044;-83
2022/09/30 10:52:56;;;;;;;21.30;7.65;;;;;;;12.16;73.32;99452.44;5088527;28;20374;-83
2022/09/30 10:55:23;;;;;;;17.73;6.95;;;;;;;12.23;73.62;99448.16;5076055;28;20081;-83
2022/09/30 10:57:52;;;;;;;17.65;7.15;;;;;;;12.26;73.77;99445.22;5081145;28;20044;-82
2022/09/30 11:00:20;;;;;;;15.35;6.78;;;;;;;12.31;73.22;99439.41;5068049;28;20399;-83
2022/09/30 11:02:58;;;;;;;11.52;6.90;;;;;;;12.26;71.75;99449.69;5068962;28;20048;-83
2022/09/30 11:05:39;;;;;;;12.82;4.97;;;;;;;12.30;72.13;99446.56;5073984;28;20032;-83
2022/09/30 11:08:28;;;;;;;18.58;5.10;;;;;;;12.31;71.51;99448.25;5081351;28;20413;-83
2022/09/30 11:11:04;;;;;;;10.57;5.55;;;;;;;12.41;71.86;99448.09;5075187;28;20481;-83
2022/09/30 11:13:41;;;;;;;11.40;5.32;;;;;;;12.48;72.12;99448.31;5084574;28;20051;-83
2022/09/30 11:16:07;;;;;;;8.27;4.45;;;;;;;12.51;71.67;99448.84;5084805;28;20069;-82
2022/09/30 11:18:53;;;;;;;8.80;4.80;;;;;;;12.50;70.94;99446.34;5102732;28;20040;-83
2022/09/30 11:21:28;;;;;;;15.70;5.18;;;;;;;12.60;70.37;99455.06;5056978;28;20067;-83
2022/09/30 11:24:14;;;;;;;12.15;4.82;;;;;;;12.59;69.85;99453.38;5055088;28;20093;-83
2022/09/30 11:27:05;;;;;;;10.15;4.72;;;;;;;12.68;70.28;99446.28;5101496;28;20043;-84
2022/09/30 11:30:06;;;;;;;11.23;4.10;;;;;;;12.68;70.12;99447.09;5085279;28;20055;-84
2022/09/30 11:33:07;;;;;;;13.25;5.13;;;;;;;12.74;69.60;99446.47;5086438;28;20040;-83
2022/09/30 11:35:43;;;;;;;7.28;4.10;;;;;;;12.80;69.62;99448.50;5086704;28;20123;-83
2022/09/30 11:38:29;;;;;;;13.65;4.55;;;;;;;12.78;68.79;99444.34;5068099;28;20043;-84
2022/09/30 11:41:06;;;;;;;9.93;4.78;;;;;;;12.86;68.99;99455.03;5097359;28;20047;-84
2022/09/30 11:44:11;;;;;;;9.38;4.85;;;;;;;12.86;68.60;99447.03;5103517;28;20036;-83
2022/09/30 11:46:46;;;;;;;14.02;5.10;;;;;;;12.91;68.49;99443.88;5094613;28;20105;-83
2022/09/30 11:49:38;;;;;;;10.65;4.32;;;;;;;12.92;67.96;99456.19;5100357;28;20031;-83
2022/09/30 11:52:17;;;;;;;16.08;4.82;;;;;;;12.88;67.44;99447.72;5074138;28;20468;-83
2022/09/30 11:55:09;;;;;;;10.70;4.38;;;;;;;12.97;67.28;99440.56;5073996;28;20060;-83
2022/09/30 11:57:47;;;;;;;7.03;3.22;;;;;;;13.00;64.51;99445.56;5096877;28;20059;-83